Time;durP1;ratioP1;P1;durP2;ratioP2;P2;SDS_P1;SDS_P2;PMS_P1;PMS_P2;Temp;Humidity;BMP_temperature;BMP_pressure;BME280_temperature;BME280_humidity;BME280_pressure;Samples;Min_cycle;Max_cycle;Signal;HPM_P1;HPM_P2
2021/05/05 00:00:29;;;;;;;2.90;2.60;;;;;;;;;;5004431;28;20060;-49
2021/05/05 00:02:58;;;;;;;3.88;2.70;;;;;;;;;;5008054;28;20108;-47
2021/05/05 00:05:24;;;;;;;2.70;2.50;;;;;;;;;;5006848;28;20449;-53
2021/05/05 00:07:50;;;;;;;2.40;2.20;;;;;;;;;;5002364;28;20097;-47
2021/05/05 00:10:17;;;;;;;4.13;2.97;;;;;;;;;;5001564;28;20117;-52
2021/05/05 00:12:44;;;;;;;3.25;2.63;;;;;;;;;;5004754;28;20042;-50
2021/05/05 00:15:15;;;;;;;3.13;2.53;;;;;;;;;;5001222;28;20048;-46
2021/05/05 00:17:41;;;;;;;2.92;2.50;;;;;;;;;;5003981;28;20050;-50
2021/05/05 00:20:09;;;;;;;3.53;2.73;;;;;;;;;;5001367;28;20113;-50
2021/05/05 00:22:35;;;;;;;3.03;2.73;;;;;;;;;;5000826;28;20772;-51
2021/05/05 00:25:02;;;;;;;2.65;2.42;;;;;;;;;;4991273;28;20285;-51
2021/05/05 00:27:28;;;;;;;3.17;2.17;;;;;;;;;;5005195;28;20045;-48
2021/05/05 00:29:55;;;;;;;3.20;2.72;;;;;;;;;;5006852;28;20497;-49
2021/05/05 00:32:21;;;;;;;3.25;2.50;;;;;;;;;;4999824;28;20097;-47
2021/05/05 00:34:47;;;;;;;3.78;2.90;;;;;;;;;;5005318;28;20118;-49
2021/05/05 00:37:14;;;;;;;3.05;2.28;;;;;;;;;;5004281;28;20084;-51
2021/05/05 00:39:41;;;;;;;5.82;2.83;;;;;;;;;;5005429;28;20525;-52
2021/05/05 00:42:07;;;;;;;4.60;2.72;;;;;;;;;;5002672;28;20045;-52
2021/05/05 00:44:33;;;;;;;2.10;1.88;;;;;;;;;;5001461;28;20042;-53
2021/05/05 00:47:00;;;;;;;3.15;2.67;;;;;;;;;;5003713;28;20042;-49
2021/05/05 00:49:27;;;;;;;8.13;2.67;;;;;;;;;;5005124;28;20042;-48
2021/05/05 00:51:53;;;;;;;4.22;2.97;;;;;;;;;;5003475;28;20228;-52
2021/05/05 00:54:19;;;;;;;5.35;3.00;;;;;;;;;;4991979;28;20054;-54
2021/05/05 00:56:46;;;;;;;3.85;3.25;;;;;;;;;;4998433;28;20042;-49
2021/05/05 00:59:12;;;;;;;4.25;3.10;;;;;;;;;;5006471;28;20133;-51
2021/05/05 01:01:40;;;;;;;4.20;3.60;;;;;;;;;;5001049;28;20066;-48
2021/05/05 01:04:07;;;;;;;3.58;3.13;;;;;;;;;;5006867;28;20097;-47
2021/05/05 01:06:34;;;;;;;4.43;3.42;;;;;;;;;;5000557;28;20058;-52
2021/05/05 01:09:00;;;;;;;5.73;3.80;;;;;;;;;;5004318;28;20081;-50
2021/05/05 01:11:29;;;;;;;4.07;3.35;;;;;;;;;;4987462;28;20048;-51
2021/05/05 01:13:55;;;;;;;5.03;4.13;;;;;;;;;;4985180;28;20045;-52
2021/05/05 01:16:21;;;;;;;5.65;3.95;;;;;;;;;;5003040;28;20402;-51
2021/05/05 01:18:49;;;;;;;5.10;3.85;;;;;;;;;;5003408;28;20112;-48
2021/05/05 01:21:16;;;;;;;5.10;3.95;;;;;;;;;;5004618;28;20129;-53
2021/05/05 01:23:44;;;;;;;5.57;4.60;;;;;;;;;;5003093;28;20125;-50
2021/05/05 01:26:10;;;;;;;6.07;4.53;;;;;;;;;;4996171;28;20070;-49
2021/05/05 01:28:39;;;;;;;7.90;4.70;;;;;;;;;;5007105;28;20116;-50
2021/05/05 01:31:06;;;;;;;6.22;4.63;;;;;;;;;;4998274;28;20137;-49
2021/05/05 01:33:33;;;;;;;6.60;5.40;;;;;;;;;;5009730;28;20137;-52
2021/05/05 01:35:59;;;;;;;6.82;4.93;;;;;;;;;;5010981;28;20041;-49
2021/05/05 01:38:25;;;;;;;5.22;3.67;;;;;;;;;;4989810;28;20054;-50
2021/05/05 01:40:52;;;;;;;6.50;5.10;;;;;;;;;;5005867;28;20112;-49
2021/05/05 01:43:19;;;;;;;8.30;5.90;;;;;;;;;;5004314;28;20057;-52
2021/05/05 01:45:45;;;;;;;8.93;5.65;;;;;;;;;;5002707;28;20057;-50
2021/05/05 01:48:12;;;;;;;8.00;5.80;;;;;;;;;;5003523;28;20577;-50
2021/05/05 01:50:38;;;;;;;7.10;5.55;;;;;;;;;;5005560;28;20068;-49
2021/05/05 01:53:05;;;;;;;9.98;6.35;;;;;;;;;;5005822;28;20046;-50
2021/05/05 01:55:34;;;;;;;8.38;6.30;;;;;;;;;;4989302;28;20058;-50
2021/05/05 01:58:00;;;;;;;11.40;6.53;;;;;;;;;;5008180;28;20160;-49
2021/05/05 02:00:32;;;;;;;11.32;7.38;;;;;;;;;;4989264;28;20048;-49
2021/05/05 02:03:03;;;;;;;8.02;6.18;;;;;;;;;;5006595;28;20085;-52
2021/05/05 02:05:38;;;;;;;9.35;6.57;;;;;;;;;;4994004;28;20046;-50
2021/05/05 02:08:12;;;;;;;11.48;6.80;;;;;;;;;;4987534;28;20057;-47
2021/05/05 02:10:39;;;;;;;7.00;5.32;;;;;;;;;;5001484;28;20053;-49
2021/05/05 02:13:07;;;;;;;6.72;5.38;;;;;;;;;;4984545;28;20058;-50
2021/05/05 02:15:34;;;;;;;6.82;4.85;;;;;;;;;;4987554;28;20130;-48
2021/05/05 02:18:02;;;;;;;6.53;5.47;;;;;;;;;;4989813;28;20077;-48
2021/05/05 02:20:30;;;;;;;8.05;5.72;;;;;;;;;;4987489;28;20521;-49
2021/05/05 02:22:59;;;;;;;8.05;5.30;;;;;;;;;;4988963;28;20494;-50
2021/05/05 02:25:26;;;;;;;8.45;5.68;;;;;;;;;;4984111;28;20053;-50
2021/05/05 02:27:55;;;;;;;9.18;6.50;;;;;;;;;;4988384;28;20043;-48
2021/05/05 02:30:28;;;;;;;8.52;6.53;;;;;;;;;;4988066;28;20050;-49
2021/05/05 02:32:58;;;;;;;9.27;7.07;;;;;;;;;;4990126;28;20058;-47
2021/05/05 02:35:24;;;;;;;11.25;7.22;;;;;;;;;;4988851;28;20140;-48
2021/05/05 02:37:54;;;;;;;10.25;7.43;;;;;;;;;;4983379;28;20046;-48
2021/05/05 02:40:21;;;;;;;9.73;6.72;;;;;;;;;;4984101;28;20034;-48
2021/05/05 02:42:49;;;;;;;12.43;7.45;;;;;;;;;;4992234;28;20454;-49
2021/05/05 02:45:16;;;;;;;9.43;7.32;;;;;;;;;;4988706;28;20520;-50
2021/05/05 02:47:45;;;;;;;10.15;6.55;;;;;;;;;;4988517;28;20121;-50
2021/05/05 02:50:12;;;;;;;10.20;7.45;;;;;;;;;;5004028;28;20050;-51
2021/05/05 02:52:39;;;;;;;10.20;7.07;;;;;;;;;;4988251;28;20050;-48
2021/05/05 02:55:07;;;;;;;7.93;6.70;;;;;;;;;;4987694;28;20065;-49
2021/05/05 02:57:33;;;;;;;;;;;;;;;;;;4982046;28;20113;-47
2021/05/05 03:00:00;;;;;;;11.20;5.90;;;;;;;;;;4988466;28;20329;-49
2021/05/05 03:02:26;;;;;;;9.30;6.22;;;;;;;;;;4985789;28;20037;-48
2021/05/05 03:04:53;;;;;;;7.47;5.90;;;;;;;;;;4988320;28;20043;-48
2021/05/05 03:07:19;;;;;;;7.43;5.68;;;;;;;;;;4985829;28;20093;-48
2021/05/05 03:09:46;;;;;;;9.48;6.07;;;;;;;;;;5003459;28;20461;-47
2021/05/05 03:12:12;;;;;;;9.20;7.00;;;;;;;;;;5001452;28;20052;-46
2021/05/05 03:14:39;;;;;;;10.63;7.50;;;;;;;;;;5004452;28;20046;-49
2021/05/05 03:17:05;;;;;;;10.40;7.15;;;;;;;;;;5011079;28;20384;-49
2021/05/05 03:19:31;;;;;;;8.98;6.68;;;;;;;;;;4997536;28;20050;-52
2021/05/05 03:21:57;;;;;;;8.60;6.22;;;;;;;;;;5009228;28;20052;-53
2021/05/05 03:24:25;;;;;;;8.45;5.70;;;;;;;;;;5006359;28;20049;-50
2021/05/05 03:26:51;;;;;;;7.55;5.50;;;;;;;;;;5005496;28;20042;-47
2021/05/05 03:29:18;;;;;;;7.20;5.15;;;;;;;;;;5007869;28;20372;-49
2021/05/05 03:31:45;;;;;;;7.63;5.30;;;;;;;;;;5000418;28;20038;-47
2021/05/05 03:34:12;;;;;;;5.95;4.70;;;;;;;;;;5006293;28;20041;-52
2021/05/05 03:36:39;;;;;;;5.55;4.47;;;;;;;;;;4996415;28;20129;-53
2021/05/05 03:39:05;;;;;;;8.75;4.55;;;;;;;;;;4999421;28;20070;-49
2021/05/05 03:41:31;;;;;;;6.82;4.55;;;;;;;;;;5004755;28;20128;-50
2021/05/05 03:43:58;;;;;;;5.57;4.13;;;;;;;;;;5009192;28;20137;-47
2021/05/05 03:46:25;;;;;;;4.80;3.75;;;;;;;;;;5001197;28;20048;-52
2021/05/05 03:48:51;;;;;;;5.83;3.53;;;;;;;;;;5001537;28;20088;-50
2021/05/05 03:51:17;;;;;;;5.28;3.47;;;;;;;;;;5000413;28;20034;-50
2021/05/05 03:53:44;;;;;;;3.60;3.08;;;;;;;;;;5001598;28;20035;-47
2021/05/05 03:56:10;;;;;;;4.38;3.15;;;;;;;;;;5001132;28;20053;-49
2021/05/05 03:58:36;;;;;;;4.28;3.20;;;;;;;;;;5002891;28;20073;-47
2021/05/05 04:01:03;;;;;;;4.93;3.28;;;;;;;;;;5004945;28;20045;-51
2021/05/05 04:03:29;;;;;;;3.50;2.55;;;;;;;;;;5005734;28;20513;-52
2021/05/05 04:05:55;;;;;;;3.33;3.03;;;;;;;;;;5004993;28;20131;-50
2021/05/05 04:08:22;;;;;;;4.28;2.72;;;;;;;;;;5003619;28;20472;-50
2021/05/05 04:10:47;;;;;;;3.83;2.85;;;;;;;;;;5006608;28;20049;-53
2021/05/05 04:13:13;;;;;;;3.20;2.90;;;;;;;;;;5006274;28;20053;-50
2021/05/05 04:15:59;;;;;;;3.08;2.58;;;;;;;;;;5007435;28;20108;-53
2021/05/05 04:18:44;;;;;;;4.38;2.55;;;;;;;;;;5000465;28;20393;-50
2021/05/05 04:21:28;;;;;;;4.03;2.40;;;;;;;;;;5003420;28;20033;-52
2021/05/05 04:24:12;;;;;;;4.22;2.53;;;;;;;;;;5002508;28;20105;-47
2021/05/05 04:26:39;;;;;;;2.60;2.40;;;;;;;;;;5005664;28;20108;-50
2021/05/05 04:29:06;;;;;;;2.40;2.20;;;;;;;;;;5005837;28;20458;-52
2021/05/05 04:31:32;;;;;;;2.47;2.17;;;;;;;;;;5004161;28;20042;-49
2021/05/05 04:34:01;;;;;;;2.25;2.05;;;;;;;;;;5002237;28;20409;-47
2021/05/05 04:36:27;;;;;;;2.10;1.90;;;;;;;;;;4999380;28;20061;-48
2021/05/05 04:38:53;;;;;;;1.95;1.50;;;;;;;;;;5002501;28;20041;-47
2021/05/05 04:41:20;;;;;;;2.10;1.90;;;;;;;;;;4999175;28;20092;-51
2021/05/05 04:43:46;;;;;;;1.85;1.75;;;;;;;;;;5001816;28;20034;-52
2021/05/05 04:46:12;;;;;;;1.60;1.50;;;;;;;;;;4999813;28;20042;-54
2021/05/05 04:48:39;;;;;;;2.85;1.80;;;;;;;;;;5006994;28;20050;-51
2021/05/05 04:51:05;;;;;;;1.98;1.65;;;;;;;;;;5004786;28;20042;-48
2021/05/05 04:53:31;;;;;;;1.77;1.65;;;;;;;;;;5000925;28;20046;-46
2021/05/05 04:55:58;;;;;;;2.03;1.73;;;;;;;;;;5001437;28;20060;-51
2021/05/05 04:58:25;;;;;;;1.73;1.52;;;;;;;;;;5003701;28;20069;-49
2021/05/05 05:00:51;;;;;;;3.20;1.48;;;;;;;;;;5011608;28;20447;-50
2021/05/05 05:03:17;;;;;;;1.73;1.35;;;;;;;;;;5014490;28;20049;-49
2021/05/05 05:05:43;;;;;;;1.58;1.48;;;;;;;;;;5012467;28;20042;-48
2021/05/05 05:08:10;;;;;;;1.60;1.50;;;;;;;;;;5010236;28;20085;-50
2021/05/05 05:10:36;;;;;;;2.38;1.67;;;;;;;;;;5006847;28;20062;-51
2021/05/05 05:13:04;;;;;;;1.40;1.30;;;;;;;;;;5014216;28;20100;-48
2021/05/05 05:15:30;;;;;;;1.40;1.30;;;;;;;;;;5004989;28;20096;-47
2021/05/05 05:17:56;;;;;;;3.17;1.27;;;;;;;;;;5007725;28;20046;-48
2021/05/05 05:20:23;;;;;;;1.40;1.30;;;;;;;;;;5010331;28;20549;-48
2021/05/05 05:22:54;;;;;;;1.20;1.10;;;;;;;;;;5007401;28;20112;-47
2021/05/05 05:25:27;;;;;;;1.08;1.08;;;;;;;;;;5015484;28;20050;-47
2021/05/05 05:27:54;;;;;;;1.35;1.25;;;;;;;;;;5011825;28;20081;-52
2021/05/05 05:30:21;;;;;;;1.50;1.40;;;;;;;;;;5012035;28;20042;-52
2021/05/05 05:32:48;;;;;;;1.07;1.03;;;;;;;;;;5006587;28;20050;-53
2021/05/05 05:35:14;;;;;;;1.25;1.10;;;;;;;;;;5008962;28;20046;-48
2021/05/05 05:37:41;;;;;;;1.27;1.02;;;;;;;;;;5006845;28;20038;-50
2021/05/05 05:40:08;;;;;;;1.20;1.10;;;;;;;;;;5011142;28;20042;-52
2021/05/05 05:42:34;;;;;;;1.45;1.35;;;;;;;;;;5003172;28;20497;-50
2021/05/05 05:45:02;;;;;;;1.40;1.30;;;;;;;;;;5006370;28;20503;-48
2021/05/05 05:47:29;;;;;;;1.65;1.10;;;;;;;;;;5009830;28;20050;-51
2021/05/05 05:49:55;;;;;;;1.05;1.00;;;;;;;;;;5011896;28;20507;-48
2021/05/05 05:52:21;;;;;;;0.90;0.90;;;;;;;;;;5009068;28;20053;-47
2021/05/05 05:54:47;;;;;;;1.40;1.30;;;;;;;;;;5006063;28;20113;-52
2021/05/05 05:57:13;;;;;;;1.20;1.10;;;;;;;;;;5010939;28;20077;-48
2021/05/05 05:59:40;;;;;;;1.20;1.10;;;;;;;;;;5008284;28;20521;-51
2021/05/05 06:02:06;;;;;;;1.10;1.10;;;;;;;;;;5010382;28;20449;-51
2021/05/05 06:04:32;;;;;;;0.80;0.80;;;;;;;;;;5004524;28;20050;-54
2021/05/05 06:06:59;;;;;;;1.15;1.10;;;;;;;;;;5010290;28;20046;-53
2021/05/05 06:09:25;;;;;;;1.00;1.00;;;;;;;;;;4987657;28;20585;-50
2021/05/05 06:11:51;;;;;;;0.90;0.90;;;;;;;;;;5003494;28;20042;-53
2021/05/05 06:14:18;;;;;;;0.73;0.73;;;;;;;;;;4990702;28;20147;-46
2021/05/05 06:16:44;;;;;;;0.95;0.93;;;;;;;;;;5008360;28;20100;-49
2021/05/05 06:19:11;;;;;;;1.08;0.90;;;;;;;;;;5007343;28;20042;-49
2021/05/05 06:21:38;;;;;;;0.80;0.80;;;;;;;;;;5007454;28;20042;-52
2021/05/05 06:24:05;;;;;;;0.90;0.90;;;;;;;;;;5007944;28;20137;-47
2021/05/05 06:26:31;;;;;;;0.98;0.88;;;;;;;;;;5003771;28;20050;-49
2021/05/05 06:29:02;;;;;;;0.77;0.77;;;;;;;;;;5006273;28;20073;-49
2021/05/05 06:31:28;;;;;;;0.93;0.88;;;;;;;;;;5006891;28;20038;-52
2021/05/05 06:33:54;;;;;;;0.68;0.68;;;;;;;;;;5011231;28;20050;-48
2021/05/05 06:36:20;;;;;;;0.60;0.60;;;;;;;;;;5005924;28;20061;-48
2021/05/05 06:38:46;;;;;;;0.80;0.80;;;;;;;;;;5006019;28;20052;-50
2021/05/05 06:41:12;;;;;;;0.70;0.70;;;;;;;;;;5006549;28;20042;-49
2021/05/05 06:43:38;;;;;;;2.78;1.13;;;;;;;;;;4999833;28;20565;-51
2021/05/05 06:46:05;;;;;;;1.38;1.10;;;;;;;;;;5002459;28;20065;-49
2021/05/05 06:48:31;;;;;;;0.80;0.70;;;;;;;;;;5006906;28;20046;-50
2021/05/05 06:50:57;;;;;;;0.70;0.70;;;;;;;;;;5005426;28;20037;-48
2021/05/05 06:53:24;;;;;;;0.80;0.80;;;;;;;;;;5004668;28;20077;-49
2021/05/05 06:55:50;;;;;;;0.68;0.68;;;;;;;;;;5006484;28;20046;-51
2021/05/05 06:58:18;;;;;;;1.00;0.90;;;;;;;;;;5006316;28;20044;-52
2021/05/05 07:00:44;;;;;;;1.30;0.80;;;;;;;;;;4999397;28;20128;-49
2021/05/05 07:03:11;;;;;;;0.80;0.80;;;;;;;;;;5009442;28;20458;-50
2021/05/05 07:05:37;;;;;;;1.67;0.90;;;;;;;;;;5006929;28;20085;-51
2021/05/05 07:08:04;;;;;;;1.10;0.90;;;;;;;;;;5010163;28;20129;-53
2021/05/05 07:10:30;;;;;;;0.70;0.70;;;;;;;;;;5006046;28;20046;-50
2021/05/05 07:12:56;;;;;;;4.65;1.10;;;;;;;;;;5011429;28;20493;-50
2021/05/05 07:15:23;;;;;;;0.50;0.50;;;;;;;;;;5005307;28;20062;-47
2021/05/05 07:17:51;;;;;;;1.05;0.85;;;;;;;;;;5002101;28;20046;-48
2021/05/05 07:20:18;;;;;;;0.93;0.90;;;;;;;;;;5008590;28;20494;-49
2021/05/05 07:22:44;;;;;;;1.20;0.80;;;;;;;;;;5011021;28;20121;-50
2021/05/05 07:25:10;;;;;;;0.88;0.70;;;;;;;;;;5004642;28;20476;-51
2021/05/05 07:27:37;;;;;;;1.17;0.73;;;;;;;;;;5009607;28;20034;-47
2021/05/05 07:30:05;;;;;;;0.60;0.60;;;;;;;;;;5002175;28;20046;-52
2021/05/05 07:32:31;;;;;;;1.73;0.50;;;;;;;;;;5006579;28;20045;-54
2021/05/05 07:34:58;;;;;;;0.63;0.60;;;;;;;;;;5005688;28;20493;-48
2021/05/05 07:37:54;;;;;;;0.40;0.40;;;;;;;;;;5005780;28;20041;-52
2021/05/05 07:48:34;;;;;;;2.15;0.60;;;;;;;;;;5007084;28;20045;-49
2021/05/05 07:51:01;;;;;;;1.13;0.60;;;;;;;;;;5001896;28;20046;-52
2021/05/05 07:53:26;;;;;;;0.60;0.60;;;;;;;;;;5003323;28;20042;-47
2021/05/05 07:55:54;;;;;;;0.70;0.60;;;;;;;;;;5000505;28;20030;-50
2021/05/05 07:58:21;;;;;;;0.68;0.68;;;;;;;;;;5001431;28;20092;-49
2021/05/05 08:00:47;;;;;;;0.95;0.70;;;;;;;;;;5003543;28;20429;-52
2021/05/05 08:03:13;;;;;;;0.70;0.70;;;;;;;;;;5004103;28;20113;-50
2021/05/05 08:05:41;;;;;;;1.23;0.88;;;;;;;;;;5007600;28;20489;-50
2021/05/05 08:08:07;;;;;;;0.82;0.70;;;;;;;;;;5006654;28;20081;-49
2021/05/05 08:10:33;;;;;;;1.00;0.90;;;;;;;;;;4983572;28;20045;-52
2021/05/05 08:13:00;;;;;;;1.10;1.00;;;;;;;;;;5006767;28;20042;-51
2021/05/05 08:15:27;;;;;;;1.35;0.93;;;;;;;;;;5000495;28;20043;-50
2021/05/05 08:17:53;;;;;;;1.30;1.20;;;;;;;;;;5004602;28;20038;-49
2021/05/05 08:20:20;;;;;;;1.35;1.10;;;;;;;;;;4998918;28;20121;-51
2021/05/05 08:22:46;;;;;;;0.80;0.80;;;;;;;;;;5005358;28;20070;-49
2021/05/05 08:25:13;;;;;;;1.63;0.83;;;;;;;;;;5006850;28;20054;-53
2021/05/05 08:27:42;;;;;;;2.72;0.93;;;;;;;;;;5000463;28;20038;-53
2021/05/05 08:30:12;;;;;;;1.17;1.08;;;;;;;;;;5008089;28;20139;-49
2021/05/05 08:32:39;;;;;;;0.70;0.70;;;;;;;;;;5006785;28;20042;-52
2021/05/05 08:35:08;;;;;;;1.13;1.02;;;;;;;;;;5005436;28;20042;-51
2021/05/05 08:37:34;;;;;;;0.88;0.88;;;;;;;;;;4999445;28;20140;-48
2021/05/05 08:40:01;;;;;;;1.05;0.82;;;;;;;;;;4999717;28;20052;-54
2021/05/05 08:42:27;;;;;;;0.85;0.80;;;;;;;;;;5005366;28;20516;-50
2021/05/05 08:44:54;;;;;;;0.85;0.85;;;;;;;;;;5003817;28;20124;-51
2021/05/05 08:47:20;;;;;;;2.75;1.02;;;;;;;;;;5002175;28;20037;-49
2021/05/05 08:49:47;;;;;;;0.70;0.70;;;;;;;;;;5001288;28;20073;-50
2021/05/05 08:52:14;;;;;;;0.90;0.90;;;;;;;;;;5006118;28;20493;-50
2021/05/05 08:54:41;;;;;;;0.95;0.85;;;;;;;;;;5000309;28;20042;-52
2021/05/05 08:57:07;;;;;;;0.70;0.70;;;;;;;;;;5004987;28;20504;-48
2021/05/05 08:59:33;;;;;;;1.05;1.00;;;;;;;;;;5003632;28;20042;-53
2021/05/05 09:02:00;;;;;;;0.88;0.88;;;;;;;;;;5001183;28;20529;-50
2021/05/05 09:04:27;;;;;;;1.20;1.10;;;;;;;;;;4999358;28;20064;-50
2021/05/05 09:06:57;;;;;;;1.40;1.30;;;;;;;;;;4998308;28;20069;-49
2021/05/05 09:09:30;;;;;;;1.65;1.50;;;;;;;;;;5001961;28;20129;-49
2021/05/05 09:11:57;;;;;;;2.00;1.85;;;;;;;;;;5006236;28;20052;-52
2021/05/05 09:14:23;;;;;;;1.90;1.70;;;;;;;;;;5008189;28;20104;-49
2021/05/05 09:16:50;;;;;;;1.73;1.63;;;;;;;;;;5002268;28;20045;-53
2021/05/05 09:19:16;;;;;;;1.60;1.50;;;;;;;;;;5003727;28;20320;-51
2021/05/05 09:21:43;;;;;;;1.77;1.40;;;;;;;;;;5008537;28;20088;-53
2021/05/05 09:24:19;;;;;;;1.75;1.42;;;;;;;;;;5004625;28;20132;-51
2021/05/05 09:26:46;;;;;;;2.67;2.03;;;;;;;;;;5005092;28;20101;-51
2021/05/05 09:29:12;;;;;;;1.88;1.45;;;;;;;;;;5001602;28;20054;-49
2021/05/05 09:31:40;;;;;;;2.28;1.60;;;;;;;;;;5004581;28;20529;-49
2021/05/05 09:34:10;;;;;;;1.55;1.45;;;;;;;;;;5005124;28;20042;-49
2021/05/05 09:36:41;;;;;;;1.55;1.45;;;;;;;;;;5005329;28;20052;-52
2021/05/05 09:39:09;;;;;;;5.63;1.63;;;;;;;;;;5001204;28;20068;-50
2021/05/05 09:41:36;;;;;;;1.83;1.60;;;;;;;;;;5002708;28;20049;-50
2021/05/05 09:44:04;;;;;;;1.65;1.55;;;;;;;;;;4998997;28;20133;-49
2021/05/05 09:46:45;;;;;;;2.42;1.70;;;;;;;;;;5007567;28;20039;-51
2021/05/05 09:49:21;;;;;;;3.42;1.75;;;;;;;;;;5007939;28;20052;-53
2021/05/05 09:51:55;;;;;;;2.38;1.55;;;;;;;;;;5010296;28;20100;-50
2021/05/05 09:54:24;;;;;;;2.63;2.03;;;;;;;;;;4985672;28;20489;-51
2021/05/05 09:56:51;;;;;;;3.17;2.00;;;;;;;;;;5003833;28;20073;-50
2021/05/05 09:59:19;;;;;;;2.45;2.10;;;;;;;;;;4994714;28;20042;-51
2021/05/05 10:02:02;;;;;;;2.72;2.08;;;;;;;;;;5004523;28;20046;-50
2021/05/05 10:04:30;;;;;;;2.40;1.95;;;;;;;;;;5003586;28;20050;-50
2021/05/05 10:06:58;;;;;;;2.33;1.77;;;;;;;;;;5008294;28;20046;-51
2021/05/05 10:09:25;;;;;;;3.53;1.80;;;;;;;;;;5008886;28;20057;-50
2021/05/05 10:11:51;;;;;;;2.88;2.13;;;;;;;;;;5003041;28;20057;-50
2021/05/05 10:14:19;;;;;;;2.42;2.03;;;;;;;;;;5001016;28;20085;-51
2021/05/05 10:16:51;;;;;;;3.75;2.10;;;;;;;;;;5006175;28;20117;-52
2021/05/05 10:19:19;;;;;;;3.42;2.13;;;;;;;;;;5005442;28;20042;-51
2021/05/05 10:21:52;;;;;;;4.72;2.30;;;;;;;;;;5003837;28;20061;-49
2021/05/05 10:24:21;;;;;;;3.92;2.10;;;;;;;;;;5002597;28;20038;-50
2021/05/05 10:26:48;;;;;;;2.40;2.20;;;;;;;;;;5006887;28;20125;-52
2021/05/05 10:29:15;;;;;;;3.88;2.30;;;;;;;;;;5006593;28;20038;-52
2021/05/05 10:31:41;;;;;;;;;;;;;;;;;;5005038;28;20042;-50
2021/05/05 10:34:20;;;;;;;2.03;1.92;;;;;;;;;;5002770;28;19976;-52
2021/05/05 10:36:51;;;;;;;2.97;2.17;;;;;;;;;;5008402;28;20046;-50
2021/05/05 10:39:17;;;;;;;1.95;1.80;;;;;;;;;;5003785;28;20124;-50
2021/05/05 10:42:00;;;;;;;2.47;2.28;;;;;;;;;;5007161;28;20042;-50
2021/05/05 10:44:38;;;;;;;4.43;2.10;;;;;;;;;;5004666;28;20046;-52
2021/05/05 10:47:10;;;;;;;4.03;2.00;;;;;;;;;;5008673;28;20050;-49
2021/05/05 10:49:56;;;;;;;3.25;2.03;;;;;;;;;;5004211;28;20046;-50
2021/05/05 10:52:22;;;;;;;2.03;1.85;;;;;;;;;;5005796;28;20034;-49
2021/05/05 10:54:50;;;;;;;2.20;2.00;;;;;;;;;;5008038;28;20125;-52
2021/05/05 10:57:17;;;;;;;4.32;2.33;;;;;;;;;;5008267;28;20046;-48
2021/05/05 11:00:13;;;;;;;2.50;2.30;;;;;;;;;;5011129;28;20477;-51
2021/05/05 11:02:47;;;;;;;4.80;2.42;;;;;;;;;;5007080;28;20056;-49
2021/05/05 11:05:29;;;;;;;5.85;2.30;;;;;;;;;;5010096;28;20426;-49
2021/05/05 11:08:05;;;;;;;6.05;2.50;;;;;;;;;;5009247;28;20061;-48
2021/05/05 11:10:32;;;;;;;3.53;2.38;;;;;;;;;;5004853;28;20046;-50
2021/05/05 11:13:18;;;;;;;3.70;2.50;;;;;;;;;;5008412;28;20478;-47
2021/05/05 11:15:45;;;;;;;2.50;2.30;;;;;;;;;;5006281;28;20049;-47
2021/05/05 11:18:27;;;;;;;3.70;2.13;;;;;;;;;;5008246;28;20124;-50
2021/05/05 11:20:57;;;;;;;1.27;1.10;;;;;;;;;;5007458;28;20050;-49
2021/05/05 11:23:36;;;;;;;3.80;1.65;;;;;;;;;;5003618;28;20552;-49
2021/05/05 11:26:15;;;;;;;2.90;1.08;;;;;;;;;;5004692;28;20117;-47
2021/05/05 11:28:49;;;;;;;1.40;0.90;;;;;;;;;;4995577;28;20038;-49
2021/05/05 11:31:15;;;;;;;1.30;0.90;;;;;;;;;;5004974;28;20076;-47
2021/05/05 11:34:00;;;;;;;1.33;1.20;;;;;;;;;;5002871;28;20042;-50
2021/05/05 11:36:27;;;;;;;4.78;1.35;;;;;;;;;;5010204;28;20527;-48
2021/05/05 11:38:53;;;;;;;4.78;1.45;;;;;;;;;;5003666;28;20057;-47
2021/05/05 11:41:20;;;;;;;2.10;1.73;;;;;;;;;;5004563;28;20095;-50
2021/05/05 11:43:47;;;;;;;1.73;1.40;;;;;;;;;;5004109;28;20134;-53
2021/05/05 11:46:13;;;;;;;1.88;1.63;;;;;;;;;;5009707;28;20405;-51
2021/05/05 11:48:42;;;;;;;2.53;1.80;;;;;;;;;;4999525;28;20046;-49
2021/05/05 11:51:17;;;;;;;4.93;2.10;;;;;;;;;;5003709;28;20126;-49
2021/05/05 11:53:43;;;;;;;3.35;1.80;;;;;;;;;;5004792;28;20091;-49
2021/05/05 11:56:17;;;;;;;2.78;2.00;;;;;;;;;;4998489;28;20105;-48
2021/05/05 11:58:52;;;;;;;3.08;1.83;;;;;;;;;;4990650;28;20050;-52
2021/05/05 12:01:27;;;;;;;2.50;1.98;;;;;;;;;;5003628;28;20564;-53
2021/05/05 12:04:11;;;;;;;3.92;1.90;;;;;;;;;;5004691;28;20521;-50
2021/05/05 12:06:55;;;;;;;3.42;2.20;;;;;;;;;;5005459;28;20069;-48
2021/05/05 12:09:31;;;;;;;3.77;2.47;;;;;;;;;;5001165;28;20050;-50
2021/05/05 12:12:09;;;;;;;3.92;2.30;;;;;;;;;;5008150;28;20096;-54
2021/05/05 12:14:36;;;;;;;2.15;1.95;;;;;;;;;;5002948;28;20054;-47
2021/05/05 12:17:23;;;;;;;2.20;2.00;;;;;;;;;;5000281;28;20508;-51
2021/05/05 12:19:55;;;;;;;2.45;1.70;;;;;;;;;;5006285;28;20042;-50
2021/05/05 12:22:23;;;;;;;3.40;1.60;;;;;;;;;;5004386;28;20046;-47
2021/05/05 12:25:04;;;;;;;2.97;1.38;;;;;;;;;;5004053;28;20042;-48
2021/05/05 12:27:31;;;;;;;1.35;1.25;;;;;;;;;;5004274;28;20096;-48
2021/05/05 12:29:58;;;;;;;2.22;1.35;;;;;;;;;;5010730;28;20409;-50
2021/05/05 12:32:39;;;;;;;1.52;1.15;;;;;;;;;;5004054;28;20058;-52
2021/05/05 12:35:08;;;;;;;1.30;1.20;;;;;;;;;;5006072;28;20048;-51
2021/05/05 12:37:34;;;;;;;1.90;1.70;;;;;;;;;;4998709;28;20117;-48
2021/05/05 12:40:00;;;;;;;2.85;1.40;;;;;;;;;;5000765;28;20116;-53
2021/05/05 12:42:36;;;;;;;4.03;1.48;;;;;;;;;;5003578;28;20034;-51
2021/05/05 12:45:05;;;;;;;1.77;1.52;;;;;;;;;;4997789;28;20490;-51
2021/05/05 12:47:32;;;;;;;2.95;1.90;;;;;;;;;;4995254;28;20041;-49
2021/05/05 12:49:59;;;;;;;1.98;1.70;;;;;;;;;;5000042;28;20046;-50
2021/05/05 12:52:27;;;;;;;2.20;2.00;;;;;;;;;;4999233;28;20056;-53
2021/05/05 12:54:54;;;;;;;2.00;1.80;;;;;;;;;;5001774;28;20046;-51
2021/05/05 12:57:21;;;;;;;1.70;1.60;;;;;;;;;;4999675;28;20038;-52
2021/05/05 12:59:50;;;;;;;2.50;1.90;;;;;;;;;;4996345;28;20050;-47
2021/05/05 13:02:25;;;;;;;2.53;2.13;;;;;;;;;;4999382;28;20046;-51
2021/05/05 13:05:00;;;;;;;2.30;2.10;;;;;;;;;;5004180;28;20121;-50
2021/05/05 13:07:33;;;;;;;3.55;2.30;;;;;;;;;;5000404;28;20054;-51
2021/05/05 13:10:01;;;;;;;3.78;2.42;;;;;;;;;;4985085;28;20042;-52
2021/05/05 13:12:49;;;;;;;2.58;2.30;;;;;;;;;;5003162;28;20042;-49
2021/05/05 13:18:07;;;;;;;4.07;2.60;;;;;;;;;;5002741;28;20046;-52
2021/05/05 13:31:40;;;;;;;2.38;2.10;;;;;;;;;;4989895;28;20050;-51
2021/05/05 13:34:07;;;;;;;2.20;2.00;;;;;;;;;;5006057;28;20132;-54
2021/05/05 13:36:47;;;;;;;2.00;1.70;;;;;;;;;;5003506;28;20105;-50
2021/05/05 13:39:14;;;;;;;2.50;1.95;;;;;;;;;;5011105;28;20045;-49
2021/05/05 13:41:41;;;;;;;2.10;1.90;;;;;;;;;;5005889;28;20437;-49
2021/05/05 13:44:12;;;;;;;2.95;1.67;;;;;;;;;;5004244;28;20089;-48
2021/05/05 13:49:21;;;;;;;1.35;1.25;;;;;;;;;;5006810;28;20493;-48
2021/05/05 13:51:47;;;;;;;1.10;0.95;;;;;;;;;;5007305;28;20037;-48
2021/05/05 13:54:14;;;;;;;1.07;1.03;;;;;;;;;;5010744;28;20070;-51
2021/05/05 13:56:41;;;;;;;1.27;1.10;;;;;;;;;;5007719;28;20049;-50
2021/05/05 13:59:07;;;;;;;1.23;1.13;;;;;;;;;;5006417;28;20068;-53
2021/05/05 14:01:33;;;;;;;1.25;1.15;;;;;;;;;;5006049;28;20053;-50
2021/05/05 14:03:59;;;;;;;1.30;1.20;;;;;;;;;;5010204;28;20508;-50
2021/05/05 14:06:27;;;;;;;0.95;0.95;;;;;;;;;;5009375;28;20116;-53
2021/05/05 14:08:54;;;;;;;0.82;0.82;;;;;;;;;;5009199;28;20058;-51
2021/05/05 14:11:22;;;;;;;1.35;1.25;;;;;;;;;;4996758;28;20053;-51
2021/05/05 14:13:48;;;;;;;1.38;1.27;;;;;;;;;;5004060;28;20651;-50
2021/05/05 14:16:15;;;;;;;4.10;1.80;;;;;;;;;;5008069;28;20046;-53
2021/05/05 14:18:42;;;;;;;3.20;1.83;;;;;;;;;;4978641;28;20045;-50
2021/05/05 14:21:12;;;;;;;2.25;2.03;;;;;;;;;;5007778;28;20051;-48
2021/05/05 14:23:39;;;;;;;3.03;1.88;;;;;;;;;;5008684;28;20096;-50
2021/05/05 14:26:05;;;;;;;3.05;1.92;;;;;;;;;;5004536;28;20057;-50
2021/05/05 14:28:38;;;;;;;3.63;1.58;;;;;;;;;;5008492;28;20042;-50
2021/05/05 14:31:05;;;;;;;5.55;2.00;;;;;;;;;;5008094;28;20052;-52
2021/05/05 14:33:31;;;;;;;2.78;1.92;;;;;;;;;;4995111;28;20093;-51
2021/05/05 14:35:58;;;;;;;4.13;1.85;;;;;;;;;;5004273;28;20048;-51
2021/05/05 14:38:25;;;;;;;2.42;2.10;;;;;;;;;;5007562;28;20052;-49
2021/05/05 14:40:57;;;;;;;2.20;1.70;;;;;;;;;;5006090;28;20561;-51
2021/05/05 14:43:28;;;;;;;3.80;1.85;;;;;;;;;;5010587;28;20413;-52
2021/05/05 14:46:03;;;;;;;2.40;1.30;;;;;;;;;;5007810;28;20046;-53
2021/05/05 14:48:30;;;;;;;2.20;1.65;;;;;;;;;;5006201;28;20050;-51
2021/05/05 14:50:59;;;;;;;1.75;1.63;;;;;;;;;;5002695;28;20429;-51
2021/05/05 14:53:26;;;;;;;2.15;1.58;;;;;;;;;;5001759;28;20122;-50
2021/05/05 14:55:53;;;;;;;1.92;1.65;;;;;;;;;;4986697;28;20541;-50
2021/05/05 15:00:46;;;;;;;2.20;1.85;;;;;;;;;;5008500;28;20069;-55
2021/05/05 15:03:14;;;;;;;1.95;1.65;;;;;;;;;;5004096;28;20042;-54
2021/05/05 15:05:52;;;;;;;2.45;1.90;;;;;;;;;;5005237;28;20137;-53
2021/05/05 15:08:21;;;;;;;1.75;1.65;;;;;;;;;;5005856;28;20132;-51
2021/05/05 15:13:31;;;;;;;2.15;1.60;;;;;;;;;;5006597;28;20120;-52
2021/05/05 15:16:32;;;;;;;2.50;1.80;;;;;;;;;;5005148;28;20050;-51
2021/05/05 15:37:44;;;;;;;2.10;1.52;;;;;;;;;;4998217;28;20076;-50
2021/05/05 15:40:33;;;;;;;2.25;2.05;;;;;;;;;;5003444;28;20046;-50